Time;durP1;ratioP1;P1;durP2;ratioP2;P2;SDS_P1;SDS_P2;PMS_P1;PMS_P2;Temp;Humidity;BMP_temperature;BMP_pressure;BME280_temperature;BME280_humidity;BME280_pressure;Samples;Min_cycle;Max_cycle;Signal;HPM_P1;HPM_P2
2023/05/16 00:02:21;;;;;;;;;;;;;;;16.92;67.84;99109.53;4432468;32;34910;-80
2023/05/16 00:04:49;;;;;;;;;;;;;;;16.86;68.26;99100.16;4425375;32;33536;-80
2023/05/16 00:07:19;;;;;;;;;;;;;;;16.95;67.40;99097.12;4426468;32;33719;-82
2023/05/16 00:09:47;;;;;;;;;;;;;;;16.92;67.47;99092.03;4427014;32;32867;-80
2023/05/16 00:12:18;;;;;;;;;;;;;;;16.83;68.04;99085.44;4432862;32;34123;-80
2023/05/16 00:14:47;;;;;;;;;;;;;;;16.86;68.27;99089.69;4428213;32;34039;-82
2023/05/16 00:17:16;;;;;;;;;;;;;;;16.91;68.37;99076.38;4427874;32;34488;-81
2023/05/16 00:19:46;;;;;;;;;;;;;;;16.85;68.48;99067.06;4427465;32;33713;-80
2023/05/16 00:22:14;;;;;;;;;;;;;;;16.82;68.73;99069.84;4426336;32;33838;-82
2023/05/16 00:24:45;;;;;;;;;;;;;;;16.62;69.41;99066.38;4430868;32;34335;-80
2023/05/16 00:27:14;;;;;;;;;;;;;;;16.76;69.09;99063.06;4427249;32;33663;-81
2023/05/16 00:29:42;;;;;;;;;;;;;;;16.64;69.62;99074.97;4427506;32;34045;-80
2023/05/16 00:32:11;;;;;;;;;;;;;;;16.79;69.32;99078.69;4425146;32;33827;-79
2023/05/16 00:34:40;;;;;;;;;;;;;;;16.62;69.54;99070.72;4430286;32;34003;-82
2023/05/16 00:37:08;;;;;;;;;;;;;;;16.57;70.14;99083.19;4426420;32;33738;-81
2023/05/16 00:39:37;;;;;;;;;;;;;;;16.76;69.50;99084.03;4425981;32;33302;-82
2023/05/16 00:42:07;;;;;;;;;;;;;;;16.59;70.25;99082.22;4424803;32;34485;-79
2023/05/16 00:44:35;;;;;;;;;;;;;;;16.65;70.04;99086.31;4432099;32;34826;-80
2023/05/16 00:47:04;;;;;;;;;;;;;;;16.82;69.34;99082.94;4429716;32;34758;-80
2023/05/16 00:49:33;;;;;;;;;;;;;;;16.57;70.54;99084.03;4426822;32;32650;-81
2023/05/16 00:52:01;;;;;;;;;;;;;;;16.51;71.13;99089.59;4425035;32;32956;-79
2023/05/16 00:54:30;;;;;;;;;;;;;;;16.70;70.45;99089.56;4424472;32;34034;-78
2023/05/16 00:56:58;;;;;;;;;;;;;;;16.60;70.66;99094.41;4429424;32;33204;-78
2023/05/16 00:59:28;;;;;;;;;;;;;;;16.52;70.95;99101.75;4426013;32;33408;-79
2023/05/16 01:01:56;;;;;;;;;;;;;;;16.74;70.10;99090.25;4421760;32;35716;-79
2023/05/16 01:04:25;;;;;;;;;;;;;;;16.71;69.77;99091.25;4423953;32;33073;-79
2023/05/16 01:06:54;;;;;;;;;;;;;;;16.53;70.59;99100.00;4431283;32;33715;-78
2023/05/16 01:09:23;;;;;;;;;;;;;;;16.54;70.96;99110.38;4426582;32;33613;-80
2023/05/16 01:11:53;;;;;;;;;;;;;;;16.33;71.99;99109.63;4425413;32;33484;-79
2023/05/16 01:14:22;;;;;;;;;;;;;;;16.58;70.50;99109.31;4427395;32;33765;-78
2023/05/16 01:16:54;;;;;;;;;;;;;;;16.61;70.57;99110.94;4423510;32;33486;-81
2023/05/16 01:19:39;;;;;;;;;;;;;;;16.59;70.65;99095.31;4433817;32;32881;-79
2023/05/16 01:22:14;;;;;;;;;;;;;;;16.63;70.73;99089.00;4427048;32;34446;-79
2023/05/16 01:24:43;;;;;;;;;;;;;;;16.29;72.15;99089.75;4426668;32;34652;-81
2023/05/16 01:27:13;;;;;;;;;;;;;;;16.52;71.58;99091.28;4427134;32;34554;-80
2023/05/16 01:29:42;;;;;;;;;;;;;;;16.42;71.68;99097.88;4422794;32;33261;-79
2023/05/16 01:32:10;;;;;;;;;;;;;;;16.48;71.50;99100.22;4432437;32;34510;-79
2023/05/16 01:34:39;;;;;;;;;;;;;;;16.23;73.00;99102.25;4426329;32;32333;-79
2023/05/16 01:37:09;;;;;;;;;;;;;;;16.06;73.86;99096.00;4427343;32;33958;-81
2023/05/16 01:39:38;;;;;;;;;;;;;;;15.93;74.51;99079.19;4427283;32;33247;-81
2023/05/16 01:42:07;;;;;;;;;;;;;;;16.17;73.42;99069.38;4438429;32;32504;-80
2023/05/16 01:44:37;;;;;;;;;;;;;;;16.30;72.94;99067.88;4426546;32;34017;-80
2023/05/16 01:47:08;;;;;;;;;;;;;;;16.29;73.09;99073.19;4426827;32;33500;-79
2023/05/16 01:49:39;;;;;;;;;;;;;;;16.36;72.36;99072.84;4425309;32;33399;-80
2023/05/16 01:52:09;;;;;;;;;;;;;;;16.44;71.84;99062.00;4424972;32;34813;-80
2023/05/16 01:54:38;;;;;;;;;;;;;;;16.61;70.71;99054.19;4428716;32;34786;-80
2023/05/16 01:57:07;;;;;;;;;;;;;;;16.23;72.16;99055.16;4423269;32;34475;-80
2023/05/16 01:59:35;;;;;;;;;;;;;;;16.48;71.07;99060.06;4429900;32;32810;-80
2023/05/16 02:02:05;;;;;;;;;;;;;;;16.32;71.66;99055.56;4445585;32;33809;-80
2023/05/16 02:04:34;;;;;;;;;;;;;;;16.40;71.40;99049.97;4443568;32;33230;-81
2023/05/16 02:07:02;;;;;;;;;;;;;;;16.43;71.52;99052.47;4419666;32;34686;-80
2023/05/16 02:09:31;;;;;;;;;;;;;;;16.37;71.59;99050.13;4415915;32;33922;-80
2023/05/16 02:12:01;;;;;;;;;;;;;;;16.46;71.39;99054.94;4430639;32;33682;-80
2023/05/16 02:14:29;;;;;;;;;;;;;;;16.46;71.36;99060.16;4422545;32;34141;-81
2023/05/16 02:16:58;;;;;;;;;;;;;;;16.37;71.46;99065.81;4415521;32;34443;-79
2023/05/16 02:19:28;;;;;;;;;;;;;;;16.32;71.58;99063.41;4418597;32;34050;-80
2023/05/16 02:21:56;;;;;;;;;;;;;;;16.51;70.88;99055.56;4417712;32;34066;-79
2023/05/16 02:24:25;;;;;;;;;;;;;;;16.29;71.88;99037.41;4430815;32;33741;-80
2023/05/16 02:26:55;;;;;;;;;;;;;;;16.34;71.43;99031.94;4436499;32;33628;-81
2023/05/16 02:29:24;;;;;;;;;;;;;;;16.28;71.44;99030.44;4429739;32;33201;-79
2023/05/16 02:31:53;;;;;;;;;;;;;;;16.36;70.99;99023.09;4427391;32;33458;-80
2023/05/16 02:34:21;;;;;;;;;;;;;;;16.51;70.27;99029.38;4425159;32;33906;-79
2023/05/16 02:36:51;;;;;;;;;;;;;;;16.28;71.18;99017.34;4437545;32;34135;-79
2023/05/16 02:39:22;;;;;;;;;;;;;;;16.27;71.38;99009.59;4427182;32;33258;-80
2023/05/16 02:41:51;;;;;;;;;;;;;;;16.13;71.93;99020.72;4422036;32;33739;-81
2023/05/16 02:44:19;;;;;;;;;;;;;;;16.17;71.40;99027.50;4428027;32;34096;-79
2023/05/16 02:46:48;;;;;;;;;;;;;;;16.20;71.46;99037.81;4432206;32;34771;-80
2023/05/16 02:49:19;;;;;;;;;;;;;;;16.23;71.17;99047.28;4435613;32;33766;-80
2023/05/16 02:51:48;;;;;;;;;;;;;;;16.29;70.91;99050.47;4427469;32;34108;-79
2023/05/16 02:54:18;;;;;;;;;;;;;;;16.10;71.59;99047.87;4427883;32;35548;-81
2023/05/16 02:56:46;;;;;;;;;;;;;;;16.05;72.30;99046.38;4427354;32;33607;-80
2023/05/16 02:59:15;;;;;;;;;;;;;;;16.10;72.08;99047.03;4431099;32;33060;-79
2023/05/16 03:01:43;;;;;;;;;;;;;;;16.04;72.06;99027.19;4436444;32;34223;-81
2023/05/16 03:04:12;;;;;;;;;;;;;;;16.09;72.03;99019.16;4443311;32;34851;-80
2023/05/16 03:06:40;;;;;;;;;;;;;;;16.11;71.98;99017.31;4423970;32;34016;-80
2023/05/16 03:09:09;;;;;;;;;;;;;;;16.26;70.91;99007.88;4435905;32;32762;-80
2023/05/16 03:11:39;;;;;;;;;;;;;;;16.09;72.09;99004.31;4430861;32;33997;-81
2023/05/16 03:14:07;;;;;;;;;;;;;;;16.04;72.33;99008.03;4430606;32;33864;-80
2023/05/16 03:16:37;;;;;;;;;;;;;;;16.12;71.99;99027.72;4430941;32;34786;-81
2023/05/16 03:19:06;;;;;;;;;;;;;;;16.12;72.00;99024.25;4430561;32;32336;-80
2023/05/16 03:21:34;;;;;;;;;;;;;;;16.11;71.55;99036.47;4436226;32;33653;-79
2023/05/16 03:24:03;;;;;;;;;;;;;;;16.07;71.82;99047.13;4430840;32;33800;-80
2023/05/16 03:26:32;;;;;;;;;;;;;;;16.02;71.81;99050.00;4430600;32;34749;-80
2023/05/16 03:29:05;;;;;;;;;;;;;;;15.95;72.44;99043.34;4430312;32;32894;-80
2023/05/16 03:31:34;;;;;;;;;;;;;;;16.03;72.03;99038.59;4435573;32;34830;-80
2023/05/16 03:34:03;;;;;;;;;;;;;;;15.95;72.35;99044.19;4430604;32;35178;-80
2023/05/16 03:36:31;;;;;;;;;;;;;;;16.12;71.66;99045.19;4430642;32;33849;-79
2023/05/16 03:39:00;;;;;;;;;;;;;;;16.20;71.29;99043.91;4430438;32;33639;-79
2023/05/16 03:41:28;;;;;;;;;;;;;;;16.24;70.49;99039.38;4446858;32;33526;-81
2023/05/16 03:43:57;;;;;;;;;;;;;;;16.05;71.48;99022.84;4438842;32;34332;-79
2023/05/16 03:46:27;;;;;;;;;;;;;;;16.17;71.01;99017.87;4427379;32;33941;-82
2023/05/16 03:48:55;;;;;;;;;;;;;;;16.01;71.83;99006.41;4423416;32;33410;-82
2023/05/16 03:51:23;;;;;;;;;;;;;;;16.06;71.88;99014.91;4430043;32;34577;-81
2023/05/16 03:53:52;;;;;;;;;;;;;;;16.00;72.22;99017.81;4428365;32;35188;-80
2023/05/16 03:56:21;;;;;;;;;;;;;;;15.81;73.88;99015.19;4421975;32;33422;-81
2023/05/16 03:58:49;;;;;;;;;;;;;;;16.00;72.84;99017.81;4429100;32;33190;-80
2023/05/16 04:01:18;;;;;;;;;;;;;;;16.13;71.75;99016.31;4428962;32;33968;-80
2023/05/16 04:03:49;;;;;;;;;;;;;;;16.17;71.32;99014.41;4448294;32;33865;-80
2023/05/16 04:06:17;;;;;;;;;;;;;;;16.19;71.50;99013.44;4420766;32;34588;-81
2023/05/16 04:08:46;;;;;;;;;;;;;;;16.31;70.77;99013.75;4426994;32;33552;-80
2023/05/16 04:11:14;;;;;;;;;;;;;;;16.02;72.24;99005.53;4423517;32;33955;-80
2023/05/16 04:13:43;;;;;;;;;;;;;;;16.16;71.73;99016.19;4424996;32;33821;-82
2023/05/16 04:16:11;;;;;;;;;;;;;;;16.03;72.11;99022.91;4432459;32;33761;-80
2023/05/16 04:18:40;;;;;;;;;;;;;;;16.19;71.91;99034.38;4420242;32;32961;-81
2023/05/16 04:21:13;;;;;;;;;;;;;;;16.22;72.29;99028.13;4427118;32;33574;-80
2023/05/16 04:23:42;;;;;;;;;;;;;;;16.23;72.48;99015.88;4435381;32;34879;-80
2023/05/16 04:26:11;;;;;;;;;;;;;;;16.50;71.48;99019.81;4436142;32;34954;-81
2023/05/16 04:28:40;;;;;;;;;;;;;;;16.49;71.46;99033.81;4427254;32;33595;-80
2023/05/16 04:31:09;;;;;;;;;;;;;;;16.47;71.75;99045.28;4428653;32;33741;-80
2023/05/16 04:33:37;;;;;;;;;;;;;;;16.54;71.08;99046.69;4429663;32;33878;-80
2023/05/16 04:36:06;;;;;;;;;;;;;;;16.38;71.26;99059.66;4433860;32;34174;-80
2023/05/16 04:38:36;;;;;;;;;;;;;;;16.49;71.12;99060.00;4434559;32;32900;-80
2023/05/16 04:41:05;;;;;;;;;;;;;;;16.51;70.68;99052.09;4427093;32;34676;-79
2023/05/16 04:43:33;;;;;;;;;;;;;;;16.38;71.42;99049.19;4428723;32;34258;-80
2023/05/16 04:46:02;;;;;;;;;;;;;;;16.42;71.41;99048.97;4422397;32;34663;-82
2023/05/16 04:48:31;;;;;;;;;;;;;;;16.52;71.07;99049.38;4429822;32;33519;-81
2023/05/16 04:50:59;;;;;;;;;;;;;;;16.50;71.35;99047.75;4428881;32;34629;-80
2023/05/16 04:53:28;;;;;;;;;;;;;;;16.39;71.61;99051.75;4428564;32;34225;-81
2023/05/16 04:56:00;;;;;;;;;;;;;;;16.45;71.75;99055.00;4427703;32;33666;-82
2023/05/16 04:58:29;;;;;;;;;;;;;;;16.59;71.16;99058.63;4425989;32;32859;-80
2023/05/16 05:00:57;;;;;;;;;;;;;;;16.60;71.08;99065.59;4430684;32;33574;-81
2023/05/16 05:03:29;;;;;;;;;;;;;;;16.62;71.17;99065.50;4428587;32;34017;-80
2023/05/16 05:05:57;;;;;;;;;;;;;;;16.69;71.05;99061.66;4429906;32;33976;-81
2023/05/16 05:08:26;;;;;;;;;;;;;;;16.25;72.23;99056.78;4437809;32;33592;-82
2023/05/16 05:10:55;;;;;;;;;;;;;;;16.58;71.90;99058.72;4435078;32;34810;-81
2023/05/16 05:13:25;;;;;;;;;;;;;;;16.56;71.74;99058.78;4437525;32;34311;-80
2023/05/16 05:15:53;;;;;;;;;;;;;;;16.45;72.46;99071.53;4425409;32;34784;-81
2023/05/16 05:18:22;;;;;;;;;;;;;;;16.53;71.67;99071.19;4418890;32;33175;-80
2023/05/16 05:20:51;;;;;;;;;;;;;;;16.57;71.30;99080.59;4432329;32;35707;-82
2023/05/16 05:23:20;;;;;;;;;;;;;;;16.45;71.56;99071.53;4426282;32;33880;-79
2023/05/16 05:25:48;;;;;;;;;;;;;;;15.64;73.27;99070.81;4427781;32;34651;-78
2023/05/16 05:28:17;;;;;;;;;;;;;;;15.22;75.44;99069.16;4438707;32;31711;-78
2023/05/16 05:30:48;;;;;;;;;;;;;;;15.96;72.64;99065.97;4433687;32;33915;-81
2023/05/16 05:33:17;;;;;;;;;;;;;;;15.48;75.10;99062.78;4435012;32;33728;-79
2023/05/16 05:35:46;;;;;;;;;;;;;;;14.93;77.63;99063.37;4432498;32;33853;-79
2023/05/16 05:38:15;;;;;;;;;;;;;;;14.79;79.49;99054.41;4429194;32;33475;-79
2023/05/16 05:40:43;;;;;;;;;;;;;;;15.42;77.10;99063.06;4420701;32;34205;-81
2023/05/16 05:43:14;;;;;;;;;;;;;;;15.51;76.28;99065.28;4429464;32;33937;-80
2023/05/16 05:45:42;;;;;;;;;;;;;;;15.15;77.92;99055.50;4427708;32;33724;-79
2023/05/16 05:48:12;;;;;;;;;;;;;;;15.51;76.76;99057.44;4431009;32;33523;-81
2023/05/16 05:50:41;;;;;;;;;;;;;;;15.74;75.28;99061.69;4431241;32;33560;-81
2023/05/16 05:53:09;;;;;;;;;;;;;;;15.73;76.12;99064.37;4440495;32;32315;-80
2023/05/16 05:55:40;;;;;;;;;;;;;;;15.99;75.26;99071.03;4432689;32;33939;-79
2023/05/16 05:58:09;;;;;;;;;;;;;;;16.26;74.03;99060.22;4436487;32;33982;-79
2023/05/16 06:00:37;;;;;;;;;;;;;;;16.22;73.35;99049.06;4435966;32;33495;-79
2023/05/16 06:03:06;;;;;;;;;;;;;;;16.18;74.30;99052.75;4433467;32;33840;-80
2023/05/16 06:05:35;;;;;;;;;;;;;;;16.38;73.39;99047.44;4439451;32;33768;-79
2023/05/16 06:08:04;;;;;;;;;;;;;;;16.62;72.67;99049.78;4430163;32;34503;-81
2023/05/16 06:10:33;;;;;;;;;;;;;;;16.72;72.14;99051.06;4434128;32;34149;-79
2023/05/16 06:13:01;;;;;;;;;;;;;;;16.87;71.44;99046.88;4424990;32;33774;-81
2023/05/16 06:15:29;;;;;;;;;;;;;;;16.90;71.20;99049.34;4439507;32;34290;-81
2023/05/16 06:17:58;;;;;;;;;;;;;;;16.42;73.79;99041.13;4433168;32;32808;-78
2023/05/16 06:20:26;;;;;;;;;;;;;;;16.25;74.62;99042.84;4434222;32;34359;-81
2023/05/16 06:22:59;;;;;;;;;;;;;;;16.40;73.80;99032.47;4439433;32;33780;-80
2023/05/16 06:25:27;;;;;;;;;;;;;;;16.35;74.39;99028.41;4435423;32;33829;-79
2023/05/16 06:27:56;;;;;;;;;;;;;;;16.29;74.85;99029.53;4438876;32;32723;-80
2023/05/16 06:30:24;;;;;;;;;;;;;;;16.35;74.33;99031.00;4434806;32;34283;-78
2023/05/16 06:32:53;;;;;;;;;;;;;;;16.25;74.02;99032.37;4431629;32;34798;-81
2023/05/16 06:35:21;;;;;;;;;;;;;;;16.26;75.19;99031.44;4422290;32;32376;-79
2023/05/16 06:37:50;;;;;;;;;;;;;;;16.46;73.84;99031.38;4440866;32;33004;-80
2023/05/16 06:40:20;;;;;;;;;;;;;;;16.12;75.53;99026.88;4431861;32;34917;-81
2023/05/16 06:42:48;;;;;;;;;;;;;;;16.30;74.36;99019.91;4432069;32;34819;-81
2023/05/16 06:45:17;;;;;;;;;;;;;;;16.06;75.67;99020.13;4426703;32;34252;-79
2023/05/16 06:47:45;;;;;;;;;;;;;;;16.47;74.09;99019.13;4432231;32;33644;-79
2023/05/16 06:50:14;;;;;;;;;;;;;;;16.20;74.68;99025.56;4430895;32;34127;-80
2023/05/16 06:52:43;;;;;;;;;;;;;;;15.84;76.03;99025.50;4427438;32;34665;-81
2023/05/16 06:55:12;;;;;;;;;;;;;;;16.28;75.04;99027.84;4433089;32;34824;-81
2023/05/16 06:57:41;;;;;;;;;;;;;;;16.26;74.42;99018.34;4427650;32;32889;-79
2023/05/16 07:00:10;;;;;;;;;;;;;;;15.69;76.85;99023.56;4438470;32;33706;-79
2023/05/16 07:02:39;;;;;;;;;;;;;;;15.51;77.00;99019.97;4435606;32;33709;-79
2023/05/16 07:05:09;;;;;;;;;;;;;;;15.91;75.16;99024.31;4431965;32;34143;-80
2023/05/16 07:07:37;;;;;;;;;;;;;;;15.36;78.18;99030.19;4430417;32;34000;-78
2023/05/16 07:10:06;;;;;;;;;;;;;;;15.51;77.71;99025.22;4436223;32;35483;-79
2023/05/16 07:12:35;;;;;;;;;;;;;;;15.31;78.90;99029.53;4429761;32;33855;-79
2023/05/16 07:15:06;;;;;;;;;;;;;;;15.22;80.99;99029.09;4430631;32;34344;-81
2023/05/16 07:17:35;;;;;;;;;;;;;;;15.16;81.93;99038.03;4429123;32;32863;-78
2023/05/16 07:20:04;;;;;;;;;;;;;;;14.61;84.46;99028.09;4436122;32;33586;-80
2023/05/16 07:22:33;;;;;;;;;;;;;;;14.18;88.86;99023.69;4435078;32;34936;-78
2023/05/16 07:25:01;;;;;;;;;;;;;;;13.92;91.13;99009.91;4430435;32;33889;-80
2023/05/16 07:27:30;;;;;;;;;;;;;;;13.94;92.92;99008.09;4430918;32;33438;-77
2023/05/16 07:29:59;;;;;;;;;;;;;;;14.28;90.66;99015.47;4430568;32;34632;-79
2023/05/16 07:32:29;;;;;;;;;;;;;;;14.14;92.33;99020.38;4436587;32;34850;-77
2023/05/16 07:34:57;;;;;;;;;;;;;;;14.06;94.00;99012.84;4430541;32;34684;-77
2023/05/16 07:37:26;;;;;;;;;;;;;;;14.32;92.65;99012.72;4435895;32;33003;-78
2023/05/16 07:39:57;;;;;;;;;;;;;;;14.36;94.12;99009.94;4438320;32;34746;-78
2023/05/16 07:42:25;;;;;;;;;;;;;;;14.46;92.65;99011.28;4438345;32;35100;-79
2023/05/16 07:44:54;;;;;;;;;;;;;;;14.20;93.79;99012.28;4428504;32;33818;-78
2023/05/16 07:47:23;;;;;;;;;;;;;;;14.22;94.53;99009.63;4438059;32;33717;-79
2023/05/16 07:49:53;;;;;;;;;;;;;;;14.17;94.76;99008.97;4432290;32;33744;-78
2023/05/16 07:52:21;;;;;;;;;;;;;;;14.61;92.05;99009.84;4430586;32;34665;-79
2023/05/16 07:54:50;;;;;;;;;;;;;;;14.19;95.33;99001.94;4431911;32;34149;-78
2023/05/16 07:57:18;;;;;;;;;;;;;;;14.22;94.81;99001.81;4429330;32;33475;-80
2023/05/16 07:59:46;;;;;;;;;;;;;;;14.49;94.28;99005.06;4431376;32;33340;-78
2023/05/16 08:02:15;;;;;;;;;;;;;;;14.39;93.17;99007.22;4429244;32;34749;-80
2023/05/16 08:04:44;;;;;;;;;;;;;;;14.75;91.95;99008.44;4427633;32;33556;-78
2023/05/16 08:07:15;;;;;;;;;;;;;;;14.70;92.50;99012.06;4422777;32;34669;-78
2023/05/16 08:09:44;;;;;;;;;;;;;;;14.68;91.92;99015.66;4428446;32;33484;-81
2023/05/16 08:12:12;;;;;;;;;;;;;;;15.01;90.92;99015.19;4428930;32;34119;-79
2023/05/16 08:14:41;;;;;;;;;;;;;;;15.20;89.37;99021.34;4428422;32;34281;-79
2023/05/16 08:17:09;;;;;;;;;;;;;;;15.29;88.14;99017.47;4431872;32;33180;-78
2023/05/16 08:19:38;;;;;;;;;;;;;;;15.46;87.52;99012.34;4435286;32;32335;-80
2023/05/16 08:22:06;;;;;;;;;;;;;;;14.88;91.37;99010.50;4435719;32;34694;-80
2023/05/16 08:24:36;;;;;;;;;;;;;;;15.03;90.87;99010.72;4428226;32;33826;-78
2023/05/16 08:27:05;;;;;;;;;;;;;;;14.63;95.11;99002.78;4435354;32;32283;-79
2023/05/16 08:29:34;;;;;;;;;;;;;;;14.13;99.62;99005.63;4435261;32;33583;-81
2023/05/16 08:32:02;;;;;;;;;;;;;;;14.30;99.35;99000.63;4436361;32;33779;-79
2023/05/16 08:34:35;;;;;;;;;;;;;;;14.36;100.00;98990.84;4434180;32;32434;-78
2023/05/16 08:37:04;;;;;;;;;;;;;;;14.35;99.84;98991.72;4433358;32;33037;-79
2023/05/16 08:39:32;;;;;;;;;;;;;;;14.38;100.00;98987.25;4422275;32;33374;-79
2023/05/16 08:42:04;;;;;;;;;;;;;;;14.44;99.88;98983.53;4427166;32;32383;-79
2023/05/16 08:44:32;;;;;;;;;;;;;;;14.79;97.89;98984.75;4429778;32;33777;-81
2023/05/16 08:47:02;;;;;;;;;;;;;;;14.24;100.00;98994.78;4425964;32;33183;-79
2023/05/16 08:49:31;;;;;;;;;;;;;;;14.39;100.00;98986.31;4427822;32;31930;-80
2023/05/16 08:51:59;;;;;;;;;;;;;;;14.65;100.00;98982.69;4428422;32;33777;-79
2023/05/16 08:54:28;;;;;;;;;;;;;;;14.60;100.00;98981.19;4424872;32;33584;-80
2023/05/16 08:56:56;;;;;;;;;;;;;;;14.87;100.00;98977.44;4436186;32;33163;-79
2023/05/16 08:59:28;;;;;;;;;;;;;;;14.70;100.00;98983.34;4445222;32;33754;-78
2023/05/16 09:01:57;;;;;;;;;;;;;;;14.65;100.00;98979.25;4442620;32;33913;-80
2023/05/16 09:04:26;;;;;;;;;;;;;;;14.83;100.00;98986.28;4427652;32;33866;-79
2023/05/16 09:06:55;;;;;;;;;;;;;;;14.73;100.00;98990.22;4430071;32;33088;-81
2023/05/16 09:09:24;;;;;;;;;;;;;;;14.60;100.00;98991.66;4430391;32;34274;-79
2023/05/16 09:11:52;;;;;;;;;;;;;;;14.61;100.00;98982.88;4432858;32;33765;-80
2023/05/16 09:14:20;;;;;;;;;;;;;;;14.60;100.00;98984.66;4437464;32;34199;-80
2023/05/16 09:17:04;;;;;;;;;;;;;;;14.65;100.00;98974.88;4427044;32;33532;-81
2023/05/16 09:19:37;;;;;;;;;;;;;;;14.41;100.00;98981.91;4428806;32;34048;-79
2023/05/16 09:22:06;;;;;;;;;;;;;;;15.11;100.00;98983.38;4434891;32;32363;-79
2023/05/16 09:24:38;;;;;;;;;;;;;;;14.71;100.00;98974.63;4426207;32;34929;-79
2023/05/16 09:27:10;;;;;;;;;;;;;;;14.56;100.00;98974.41;4422358;32;33080;-79
2023/05/16 09:29:39;;;;;;;;;;;;;;;14.58;100.00;98962.13;4429940;32;34162;-79
2023/05/16 09:32:11;;;;;;;;;;;;;;;14.77;100.00;98964.84;4426074;32;35431;-80
2023/05/16 09:34:39;;;;;;;;;;;;;;;14.80;100.00;98962.09;4429158;32;33275;-81
2023/05/16 09:37:09;;;;;;;;;;;;;;;14.85;100.00;98963.59;4422454;32;33138;-79
2023/05/16 09:39:39;;;;;;;;;;;;;;;14.51;100.00;98972.78;4435589;32;34247;-79
2023/05/16 09:42:10;;;;;;;;;;;;;;;14.86;100.00;98967.03;4435956;32;34168;-80
2023/05/16 09:44:39;;;;;;;;;;;;;;;14.82;100.00;98968.94;4443532;32;33519;-81
2023/05/16 09:47:07;;;;;;;;;;;;;;;14.79;100.00;98974.31;4432983;32;33289;-80
2023/05/16 09:49:38;;;;;;;;;;;;;;;14.61;100.00;98975.06;4429300;32;33841;-79
2023/05/16 09:52:06;;;;;;;;;;;;;;;14.66;100.00;98980.94;4434222;32;33598;-80
2023/05/16 09:54:35;;;;;;;;;;;;;;;14.73;100.00;98978.00;4425074;32;34428;-81
2023/05/16 09:57:03;;;;;;;;;;;;;;;14.96;100.00;98970.13;4434034;32;32752;-79
2023/05/16 09:59:32;;;;;;;;;;;;;;;15.01;100.00;98976.84;4431155;32;33738;-80
2023/05/16 10:02:00;;;;;;;;;;;;;;;15.01;100.00;98973.41;4437038;32;34017;-78
2023/05/16 10:04:30;;;;;;;;;;;;;;;14.65;100.00;98974.88;4428927;32;33759;-77
2023/05/16 10:07:00;;;;;;;;;;;;;;;14.77;100.00;98972.69;4435492;32;33926;-80
2023/05/16 10:09:29;;;;;;;;;;;;;;;14.81;100.00;98966.38;4423000;32;33967;-82
2023/05/16 10:12:01;;;;;;;;;;;;;;;15.23;99.74;98963.72;4427951;32;33587;-80
2023/05/16 10:14:30;;;;;;;;;;;;;;;14.99;100.00;98964.78;4423213;32;34357;-79
2023/05/16 10:16:59;;;;;;;;;;;;;;;14.97;100.00;98966.59;4425018;32;33218;-79
2023/05/16 10:19:27;;;;;;;;;;;;;;;15.12;100.00;98958.09;4441607;32;33907;-80
2023/05/16 10:21:57;;;;;;;;;;;;;;;15.10;100.00;98954.69;4430731;32;34312;-79
2023/05/16 10:24:29;;;;;;;;;;;;;;;14.60;100.00;98952.50;4425653;32;33621;-80
2023/05/16 10:26:57;;;;;;;;;;;;;;;14.44;100.00;98942.63;4435253;32;33552;-78
2023/05/16 10:29:26;;;;;;;;;;;;;;;14.65;100.00;98933.09;4438480;32;34704;-78
2023/05/16 10:31:54;;;;;;;;;;;;;;;14.61;100.00;98944.56;4426023;32;33906;-78
2023/05/16 10:34:23;;;;;;;;;;;;;;;14.66;100.00;98936.56;4426240;32;34071;-77
2023/05/16 10:36:51;;;;;;;;;;;;;;;14.71;100.00;98945.91;4429089;32;33085;-80
2023/05/16 10:39:20;;;;;;;;;;;;;;;14.70;100.00;98952.03;4434806;32;33785;-78
2023/05/16 10:41:50;;;;;;;;;;;;;;;14.94;100.00;98946.69;4421581;32;35084;-78
2023/05/16 10:44:19;;;;;;;;;;;;;;;15.06;100.00;98950.53;4430501;32;34884;-79
2023/05/16 10:46:47;;;;;;;;;;;;;;;15.08;100.00;98943.50;4434028;32;33237;-77
2023/05/16 10:49:19;;;;;;;;;;;;;;;14.92;100.00;98918.00;4432799;32;33840;-78
2023/05/16 10:51:50;;;;;;;;;;;;;;;14.84;100.00;98907.06;4436263;32;33846;-79
2023/05/16 10:54:21;;;;;;;;;;;;;;;15.07;100.00;98899.97;4429643;32;33170;-79
2023/05/16 10:56:56;;;;;;;;;;;;;;;14.87;100.00;98903.47;4429890;32;33101;-80
2023/05/16 10:59:27;;;;;;;;;;;;;;;15.05;100.00;98899.19;4429536;32;33590;-80
2023/05/16 11:01:56;;;;;;;;;;;;;;;14.85;100.00;98900.91;4443778;32;35128;-77
2023/05/16 11:04:28;;;;;;;;;;;;;;;14.96;100.00;98897.00;4442648;32;35379;-80
2023/05/16 11:06:57;;;;;;;;;;;;;;;14.75;100.00;98886.56;4428943;32;33424;-78
2023/05/16 11:09:27;;;;;;;;;;;;;;;14.59;100.00;98893.34;4433609;32;33698;-80
2023/05/16 11:12:01;;;;;;;;;;;;;;;15.10;100.00;98892.88;4436203;32;34945;-79
2023/05/16 11:14:36;;;;;;;;;;;;;;;15.13;100.00;98878.81;4433756;32;33669;-79
2023/05/16 11:17:07;;;;;;;;;;;;;;;15.29;100.00;98866.75;4430755;32;34040;-81
2023/05/16 11:19:39;;;;;;;;;;;;;;;14.93;100.00;98849.22;4431037;32;34146;-79
2023/05/16 11:22:14;;;;;;;;;;;;;;;15.46;100.00;98858.13;4430636;32;35402;-81
2023/05/16 11:24:49;;;;;;;;;;;;;;;15.21;100.00;98862.78;4429537;32;34148;-80
2023/05/16 11:27:23;;;;;;;;;;;;;;;15.24;100.00;98862.66;4435316;32;32849;-79
2023/05/16 11:29:52;;;;;;;;;;;;;;;15.47;100.00;98864.22;4428875;32;33878;-79
2023/05/16 11:32:21;;;;;;;;;;;;;;;15.18;100.00;98866.41;4440844;32;33777;-80
2023/05/16 11:34:50;;;;;;;;;;;;;;;15.51;100.00;98870.97;4431673;32;34239;-80
2023/05/16 11:37:19;;;;;;;;;;;;;;;15.41;100.00;98874.94;4434421;32;33837;-81
2023/05/16 11:39:48;;;;;;;;;;;;;;;15.34;100.00;98870.00;4435996;32;35648;-80
2023/05/16 11:42:17;;;;;;;;;;;;;;;15.25;100.00;98873.03;4433470;32;35357;-81
2023/05/16 11:44:47;;;;;;;;;;;;;;;15.39;100.00;98859.34;4446087;32;33116;-81
2023/05/16 11:47:16;;;;;;;;;;;;;;;15.26;100.00;98855.59;4446012;32;33076;-79
2023/05/16 11:49:46;;;;;;;;;;;;;;;15.64;100.00;98861.66;4447003;32;34024;-80
2023/05/16 11:52:17;;;;;;;;;;;;;;;15.42;100.00;98853.97;4445631;32;35557;-81
2023/05/16 11:54:45;;;;;;;;;;;;;;;15.52;100.00;98852.63;4439293;32;34675;-81
2023/05/16 11:57:13;;;;;;;;;;;;;;;15.51;100.00;98850.06;4430720;32;33667;-81
2023/05/16 11:59:42;;;;;;;;;;;;;;;15.94;100.00;98843.66;4436601;32;33917;-81
2023/05/16 12:02:12;;;;;;;;;;;;;;;15.68;100.00;98849.28;4442973;32;33989;-80
2023/05/16 12:04:40;;;;;;;;;;;;;;;15.70;100.00;98850.09;4440014;32;33553;-82
2023/05/16 12:07:09;;;;;;;;;;;;;;;16.09;99.47;98849.06;4430360;32;32930;-81
2023/05/16 12:09:37;;;;;;;;;;;;;;;15.68;100.00;98849.28;4371532;32;1898544;-82
2023/05/16 12:12:07;;;;;;;;;;;;;;;15.54;100.00;98849.94;4435558;32;34544;-81
2023/05/16 12:14:36;;;;;;;;;;;;;;;15.91;100.00;98842.97;4433234;32;34302;-81
2023/05/16 12:17:04;;;;;;;;;;;;;;;15.57;100.00;98840.19;4430273;32;32544;-82
2023/05/16 12:19:34;;;;;;;;;;;;;;;16.14;99.62;98852.31;4429983;32;34609;-81
2023/05/16 12:22:03;;;;;;;;;;;;;;;15.93;100.00;98849.00;4436187;32;34038;-81
2023/05/16 12:24:31;;;;;;;;;;;;;;;15.84;100.00;98846.81;4429129;32;33852;-82
2023/05/16 12:27:00;;;;;;;;;;;;;;;15.88;100.00;98845.75;4431850;32;32894;-81
2023/05/16 12:29:28;;;;;;;;;;;;;;;16.07;100.00;98848.28;4431575;32;33779;-80
2023/05/16 12:31:57;;;;;;;;;;;;;;;16.04;100.00;98845.84;4442731;32;32537;-81
2023/05/16 12:34:30;;;;;;;;;;;;;;;16.28;98.15;98844.63;4433383;32;34554;-83
2023/05/16 12:37:01;;;;;;;;;;;;;;;16.57;96.50;98835.28;4419898;32;33126;-81
2023/05/16 12:39:36;;;;;;;;;;;;;;;16.02;98.96;98840.69;4422312;32;32078;-83
2023/05/16 12:42:05;;;;;;;;;;;;;;;16.07;100.00;98840.44;4428667;32;33897;-82
2023/05/16 12:44:34;;;;;;;;;;;;;;;16.12;100.00;98844.56;4436369;32;34436;-81
2023/05/16 12:47:03;;;;;;;;;;;;;;;16.06;99.96;98847.47;4428041;32;33328;-83
2023/05/16 12:49:33;;;;;;;;;;;;;;;16.02;100.00;98845.94;4428605;32;33884;-83
2023/05/16 12:52:04;;;;;;;;;;;;;;;16.85;94.29;98857.47;4433345;32;32945;-82
2023/05/16 12:54:33;;;;;;;;;;;;;;;16.65;95.66;98848.00;4437553;32;34730;-82